Time;durP1;ratioP1;P1;durP2;ratioP2;P2;SDS_P1;SDS_P2;PMS_P1;PMS_P2;Temp;Humidity;BMP_temperature;BMP_pressure;BME280_temperature;BME280_humidity;BME280_pressure;Samples;Min_cycle;Max_cycle;Signal;HPM_P1;HPM_P2
2024/01/21 00:01:13;;;;;;;9.90;3.30;;;5.50;99.90;;;;;;5031031;28;20092;-53
2024/01/21 00:03:39;;;;;;;;;;;5.50;99.90;;;;;;5031836;28;20037;-51
2024/01/21 00:06:05;;;;;;;6.82;2.90;;;5.40;99.90;;;;;;5031411;28;19904;-51
2024/01/21 00:08:31;;;;;;;12.00;3.50;;;5.40;99.90;;;;;;5031278;28;20037;-51
2024/01/21 00:10:57;;;;;;;13.60;3.30;;;5.40;99.90;;;;;;5029906;28;20104;-48
2024/01/21 00:13:22;;;;;;;12.60;3.65;;;5.40;99.90;;;;;;5031208;28;20042;-50
2024/01/21 00:15:48;;;;;;;8.60;3.13;;;5.30;99.90;;;;;;5030968;28;20095;-52
2024/01/21 00:18:15;;;;;;;11.23;3.30;;;5.40;99.90;;;;;;5031026;28;20020;-51
2024/01/21 00:20:41;;;;;;;9.35;3.25;;;5.40;99.90;;;;;;5031215;28;20041;-57
2024/01/21 00:23:07;;;;;;;10.60;3.97;;;5.30;99.90;;;;;;5030934;28;20444;-53
2024/01/21 00:25:33;;;;;;;9.70;3.38;;;5.30;99.90;;;;;;5030952;28;20061;-52
2024/01/21 00:27:58;;;;;;;10.05;3.40;;;5.40;99.90;;;;;;5030842;28;20353;-49
2024/01/21 00:30:24;;;;;;;12.90;3.72;;;5.30;99.90;;;;;;5031155;28;20017;-51
2024/01/21 00:32:50;;;;;;;6.30;2.90;;;5.30;99.90;;;;;;5030808;28;20552;-51
2024/01/21 00:35:15;;;;;;;12.63;3.42;;;5.30;99.90;;;;;;5030993;28;20643;-53
2024/01/21 00:37:41;;;;;;;7.70;3.03;;;5.30;99.90;;;;;;5030959;28;20087;-52
2024/01/21 00:40:08;;;;;;;9.65;3.47;;;5.30;99.90;;;;;;5030846;28;20021;-52
2024/01/21 00:42:35;;;;;;;8.98;2.83;;;5.20;99.90;;;;;;5029528;28;20048;-52
2024/01/21 00:45:01;;;;;;;7.90;3.20;;;5.20;99.90;;;;;;5030743;28;21175;-50
2024/01/21 00:47:26;;;;;;;12.60;3.30;;;5.20;99.90;;;;;;5030812;28;20365;-48
2024/01/21 00:49:52;;;;;;;10.52;2.75;;;5.20;99.90;;;;;;5030652;28;20034;-50
2024/01/21 00:52:18;;;;;;;9.57;3.63;;;5.10;99.90;;;;;;5031038;28;20036;-53
2024/01/21 00:54:44;;;;;;;8.80;3.47;;;5.20;99.90;;;;;;5030822;28;20072;-49
2024/01/21 00:57:09;;;;;;;11.57;4.03;;;5.10;99.90;;;;;;5030679;28;20440;-52
2024/01/21 00:59:35;;;;;;;7.47;3.20;;;5.20;99.90;;;;;;5030711;28;20503;-53
2024/01/21 01:02:01;;;;;;;19.10;3.75;;;5.20;99.90;;;;;;5030452;28;20132;-53
2024/01/21 01:04:26;;;;;;;11.98;3.28;;;5.20;99.90;;;;;;5030646;28;20052;-54
2024/01/21 01:06:52;;;;;;;13.43;4.00;;;5.20;99.90;;;;;;5030351;28;20025;-55
2024/01/21 01:09:17;;;;;;;7.35;3.00;;;5.20;99.90;;;;;;5030275;28;20025;-51
2024/01/21 01:11:43;;;;;;;7.95;3.85;;;5.20;99.90;;;;;;5030227;28;20042;-54
2024/01/21 01:14:09;;;;;;;8.30;3.20;;;5.20;99.90;;;;;;5029603;28;20091;-54
2024/01/21 01:16:39;;;;;;;11.85;3.70;;;5.20;99.90;;;;;;5030327;28;20028;-50
2024/01/21 01:19:05;;;;;;;;;;;5.20;99.90;;;;;;5029240;28;20088;-57
2024/01/21 01:21:31;;;;;;;8.35;2.75;;;5.30;99.90;;;;;;5030292;28;19913;-50
2024/01/21 01:23:57;;;;;;;9.18;3.47;;;5.30;99.90;;;;;;5030366;28;20108;-55
2024/01/21 01:26:23;;;;;;;14.68;4.43;;;5.30;99.90;;;;;;5030160;28;20049;-55
2024/01/21 01:28:50;;;;;;;11.95;3.22;;;5.30;99.90;;;;;;5030440;28;20451;-53
2024/01/21 01:31:19;;;;;;;12.00;3.42;;;5.40;99.90;;;;;;5030054;28;20026;-51
2024/01/21 01:33:44;;;;;;;7.05;2.60;;;5.40;99.90;;;;;;5030509;28;20381;-54
2024/01/21 01:36:10;;;;;;;13.55;3.33;;;5.40;99.90;;;;;;5030298;28;20021;-53
2024/01/21 01:38:36;;;;;;;13.23;3.83;;;5.40;99.90;;;;;;5030478;28;20484;-52
2024/01/21 01:41:02;;;;;;;10.38;3.22;;;5.40;99.90;;;;;;5030432;28;20030;-54
2024/01/21 01:43:28;;;;;;;9.45;3.30;;;5.40;99.90;;;;;;5030415;28;20028;-53
2024/01/21 01:45:54;;;;;;;13.77;3.58;;;5.40;99.90;;;;;;5029974;28;20025;-52
2024/01/21 01:48:22;;;;;;;8.68;3.67;;;5.40;99.90;;;;;;5030065;28;20096;-55
2024/01/21 01:50:48;;;;;;;11.07;2.92;;;5.40;99.90;;;;;;5030175;28;20079;-51
2024/01/21 01:53:16;;;;;;;5.82;3.10;;;5.40;99.90;;;;;;5030125;28;20029;-57
2024/01/21 01:55:43;;;;;;;11.35;2.60;;;5.50;99.90;;;;;;5030000;28;20096;-57
2024/01/21 01:58:11;;;;;;;8.73;2.95;;;5.50;99.90;;;;;;5029841;28;20113;-55
2024/01/21 02:00:37;;;;;;;11.10;3.83;;;5.50;99.90;;;;;;5029833;28;20025;-55
2024/01/21 02:03:03;;;;;;;7.90;3.60;;;5.60;99.90;;;;;;5029840;28;20048;-56
2024/01/21 02:05:29;;;;;;;6.38;3.65;;;5.50;99.90;;;;;;5029910;28;20026;-53
2024/01/21 02:07:55;;;;;;;7.43;3.22;;;5.50;99.90;;;;;;5030034;28;20029;-54
2024/01/21 02:10:21;;;;;;;8.68;3.63;;;5.50;99.90;;;;;;5029930;28;20030;-50
2024/01/21 02:12:47;;;;;;;12.02;3.92;;;5.50;99.90;;;;;;5029684;28;20069;-57
2024/01/21 02:15:12;;;;;;;10.27;3.85;;;5.50;99.90;;;;;;5029789;28;20476;-55
2024/01/21 02:17:39;;;;;;;15.20;3.60;;;5.40;99.90;;;;;;5029722;28;20017;-55
2024/01/21 02:20:07;;;;;;;10.13;4.03;;;5.30;99.90;;;;;;5029789;28;20428;-54
2024/01/21 02:22:35;;;;;;;15.00;4.90;;;5.30;99.90;;;;;;5029742;28;20430;-51
2024/01/21 02:25:01;;;;;;;11.80;4.20;;;5.30;99.90;;;;;;5032379;28;20598;-49
2024/01/21 02:27:26;;;;;;;13.45;4.70;;;5.30;99.90;;;;;;5033299;28;20030;-53
2024/01/21 02:29:52;;;;;;;9.98;3.83;;;5.30;99.90;;;;;;5033309;28;20031;-49
2024/01/21 02:32:18;;;;;;;11.45;4.43;;;5.20;99.90;;;;;;5033194;28;20021;-54
2024/01/21 02:34:43;;;;;;;8.13;3.70;;;5.20;99.90;;;;;;5033102;28;20033;-56
2024/01/21 02:37:09;;;;;;;8.93;3.80;;;5.20;99.90;;;;;;5015617;28;20033;-54
2024/01/21 02:39:35;;;;;;;11.98;3.65;;;5.30;99.90;;;;;;5032808;28;20037;-53
2024/01/21 02:42:00;;;;;;;15.07;5.10;;;5.20;99.90;;;;;;5033199;28;20104;-52
2024/01/21 02:44:26;;;;;;;12.00;4.32;;;5.20;99.90;;;;;;5032845;28;20033;-50
2024/01/21 02:46:51;;;;;;;11.27;4.32;;;5.20;99.90;;;;;;5032846;28;20013;-50
2024/01/21 02:49:17;;;;;;;12.43;4.60;;;5.10;99.90;;;;;;5032971;28;20018;-49
2024/01/21 02:51:43;;;;;;;13.13;4.43;;;5.10;99.90;;;;;;5015282;28;20033;-49
2024/01/21 02:54:08;;;;;;;14.63;5.10;;;5.10;99.90;;;;;;5032728;28;20018;-50
2024/01/21 02:56:34;;;;;;;22.10;5.40;;;5.10;99.90;;;;;;5032787;28;20066;-49
2024/01/21 02:59:00;;;;;;;9.73;3.83;;;5.10;99.90;;;;;;5032472;28;20129;-52
2024/01/21 03:01:25;;;;;;;13.02;4.68;;;5.10;99.90;;;;;;5032763;28;20070;-50
2024/01/21 03:03:51;;;;;;;15.75;5.57;;;5.20;99.90;;;;;;5032665;28;20103;-51
2024/01/21 03:06:17;;;;;;;8.27;4.20;;;5.10;99.90;;;;;;5032494;28;20022;-53
2024/01/21 03:08:43;;;;;;;11.50;4.72;;;5.20;99.90;;;;;;5032675;28;20046;-54
2024/01/21 03:11:08;;;;;;;13.80;4.43;;;5.20;99.90;;;;;;5032636;28;20392;-52
2024/01/21 03:13:34;;;;;;;9.68;4.22;;;5.10;99.90;;;;;;5032649;28;20045;-50
2024/01/21 03:16:00;;;;;;;12.60;4.70;;;5.20;99.90;;;;;;5032581;28;20080;-51
2024/01/21 03:18:26;;;;;;;12.25;4.32;;;5.20;99.90;;;;;;5032457;28;20101;-50
2024/01/21 03:20:52;;;;;;;9.25;4.10;;;5.20;99.90;;;;;;5032326;28;20037;-53
2024/01/21 03:23:18;;;;;;;12.38;4.70;;;5.20;99.90;;;;;;5032561;28;20044;-52
2024/01/21 03:25:44;;;;;;;12.23;5.15;;;5.30;99.90;;;;;;5031015;28;20030;-52
2024/01/21 03:28:10;;;;;;;11.55;5.05;;;5.20;99.90;;;;;;5032205;28;20107;-52
2024/01/21 03:30:36;;;;;;;10.82;4.70;;;5.20;99.90;;;;;;5032558;28;20025;-50
2024/01/21 03:33:01;;;;;;;18.30;5.40;;;5.20;99.90;;;;;;5030659;28;20429;-50
2024/01/21 03:35:27;;;;;;;12.38;4.55;;;5.20;99.90;;;;;;5031305;28;20014;-50
2024/01/21 03:37:53;;;;;;;13.80;4.53;;;5.20;99.90;;;;;;5031745;28;20066;-51
2024/01/21 03:40:18;;;;;;;10.45;4.07;;;5.10;99.90;;;;;;5032013;28;20378;-53
2024/01/21 03:42:45;;;;;;;15.05;4.57;;;5.20;99.90;;;;;;5032025;28;20355;-55
2024/01/21 03:45:11;;;;;;;11.02;4.05;;;5.20;99.90;;;;;;5031695;28;20029;-50
2024/01/21 03:47:37;;;;;;;9.80;4.25;;;5.30;99.90;;;;;;5031892;28;20395;-49
2024/01/21 03:50:03;;;;;;;5.30;2.78;;;5.30;99.90;;;;;;5031956;28;20030;-52
2024/01/21 03:52:29;;;;;;;6.05;2.85;;;5.40;99.90;;;;;;5031865;28;20032;-54
2024/01/21 03:54:54;;;;;;;4.63;2.78;;;5.50;99.90;;;;;;5031580;28;20025;-49
2024/01/21 03:57:20;;;;;;;6.93;2.95;;;5.60;99.90;;;;;;5031731;28;20025;-52
2024/01/21 03:59:46;;;;;;;8.65;2.63;;;5.70;99.90;;;;;;5031809;28;20041;-54
2024/01/21 04:02:12;;;;;;;6.40;2.90;;;5.70;99.90;;;;;;5031491;28;20086;-48
2024/01/21 04:04:37;;;;;;;6.72;2.10;;;5.80;99.90;;;;;;5031683;28;20022;-51
2024/01/21 04:07:03;;;;;;;6.32;2.65;;;5.90;99.90;;;;;;5031639;28;20021;-51
2024/01/21 04:09:29;;;;;;;10.50;2.05;;;5.90;99.90;;;;;;5031550;28;20024;-47
2024/01/21 04:11:54;;;;;;;6.50;2.28;;;6.00;99.90;;;;;;5031238;28;20102;-56
2024/01/21 04:14:20;;;;;;;7.82;2.95;;;6.00;99.90;;;;;;5031388;28;20044;-52
2024/01/21 04:16:46;;;;;;;7.07;3.03;;;6.00;99.90;;;;;;5031545;28;20024;-52
2024/01/21 04:19:12;;;;;;;8.00;3.10;;;6.10;99.90;;;;;;5030951;28;20037;-52
2024/01/21 04:21:38;;;;;;;10.57;3.15;;;6.20;99.90;;;;;;5031275;28;20032;-54
2024/01/21 04:24:04;;;;;;;16.90;4.13;;;6.20;99.90;;;;;;5031139;28;20029;-52
2024/01/21 04:26:33;;;;;;;9.95;3.33;;;6.20;99.90;;;;;;5031042;28;20040;-55
2024/01/21 04:28:59;;;;;;;10.18;4.10;;;6.20;99.90;;;;;;5031203;28;20067;-55
2024/01/21 04:31:24;;;;;;;7.95;3.50;;;6.30;99.90;;;;;;5029577;28;20041;-53
2024/01/21 04:33:50;;;;;;;11.40;4.05;;;6.30;99.90;;;;;;5031264;28;20542;-52
2024/01/21 04:36:20;;;;;;;10.82;3.60;;;6.30;99.90;;;;;;5031046;28;20113;-54
2024/01/21 04:38:46;;;;;;;12.73;3.53;;;6.30;99.90;;;;;;5031059;28;20040;-48
2024/01/21 04:41:13;;;;;;;12.70;3.88;;;6.30;99.90;;;;;;5031047;28;20052;-51
2024/01/21 04:43:39;;;;;;;12.02;3.88;;;6.30;99.90;;;;;;5030987;28;20025;-51
2024/01/21 04:46:05;;;;;;;18.27;4.63;;;6.40;99.90;;;;;;5030893;28;20112;-49
2024/01/21 04:48:30;;;;;;;12.93;3.78;;;6.40;99.90;;;;;;5030688;28;20498;-55
2024/01/21 04:50:56;;;;;;;10.65;4.35;;;6.50;99.90;;;;;;5030691;28;20099;-52
2024/01/21 04:53:21;;;;;;;11.10;4.63;;;6.50;99.90;;;;;;5028871;28;21914;-54
2024/01/21 04:55:47;;;;;;;13.07;3.42;;;6.50;99.90;;;;;;5028959;28;20033;-49
2024/01/21 04:58:13;;;;;;;9.95;3.80;;;6.60;99.90;;;;;;5030098;28;20045;-50
2024/01/21 05:00:38;;;;;;;9.93;4.80;;;6.60;99.90;;;;;;5030530;28;20365;-50
2024/01/21 05:03:04;;;;;;;18.50;3.85;;;6.70;99.90;;;;;;5030542;28;20021;-49
2024/01/21 05:05:30;;;;;;;13.90;3.33;;;6.70;99.90;;;;;;5030370;28;20045;-52
2024/01/21 05:07:55;;;;;;;15.05;3.35;;;6.70;99.90;;;;;;5030262;28;20076;-50
2024/01/21 05:10:22;;;;;;;14.93;3.80;;;6.80;99.90;;;;;;5030565;28;20033;-53
2024/01/21 05:12:47;;;;;;;11.95;3.63;;;6.90;99.90;;;;;;5030303;28;20048;-53
2024/01/21 05:15:13;;;;;;;16.73;4.05;;;7.00;99.90;;;;;;5030316;28;20017;-51
2024/01/21 05:17:39;;;;;;;12.13;3.22;;;7.00;99.90;;;;;;5028902;28;20499;-53
2024/01/21 05:20:08;;;;;;;13.23;3.78;;;7.00;99.90;;;;;;5030224;28;20108;-51
2024/01/21 05:22:34;;;;;;;11.27;2.85;;;7.10;99.90;;;;;;5030105;28;20049;-48
2024/01/21 05:25:00;;;;;;;15.43;3.55;;;7.10;99.90;;;;;;5030578;28;20113;-52
2024/01/21 05:27:25;;;;;;;17.73;3.60;;;7.20;99.90;;;;;;5030164;28;20021;-55
2024/01/21 05:29:51;;;;;;;14.18;3.60;;;7.30;99.90;;;;;;5030525;28;20401;-50
2024/01/21 05:32:16;;;;;;;10.65;3.00;;;7.20;99.90;;;;;;5030125;28;20070;-49
2024/01/21 05:34:42;;;;;;;7.63;2.50;;;7.30;99.90;;;;;;5030051;28;20337;-48
2024/01/21 05:37:08;;;;;;;9.60;3.22;;;7.30;99.90;;;;;;5030264;28;20490;-52
2024/01/21 05:39:33;;;;;;;11.73;3.20;;;7.30;99.90;;;;;;5030088;28;20555;-54
2024/01/21 05:42:04;;;;;;;13.23;3.25;;;7.30;99.90;;;;;;5028848;28;20021;-55
2024/01/21 05:44:29;;;;;;;9.65;3.97;;;7.40;99.90;;;;;;5030022;28;20025;-52
2024/01/21 05:46:55;;;;;;;11.02;3.67;;;7.40;99.90;;;;;;5030315;28;20491;-56
2024/01/21 05:49:21;;;;;;;7.57;3.10;;;7.30;99.90;;;;;;5029990;28;20500;-55
2024/01/21 05:51:47;;;;;;;12.77;3.55;;;7.30;99.90;;;;;;5030041;28;20499;-49
2024/01/21 05:54:13;;;;;;;9.10;3.28;;;7.30;99.90;;;;;;5030423;28;20033;-53
2024/01/21 05:56:38;;;;;;;10.80;3.60;;;7.40;99.90;;;;;;5030062;28;20018;-57
2024/01/21 05:59:04;;;;;;;13.98;3.67;;;7.40;99.90;;;;;;5031190;28;20492;-53
2024/01/21 06:01:30;;;;;;;10.70;2.97;;;7.40;99.90;;;;;;5033884;28;20018;-54
2024/01/21 06:03:55;;;;;;;17.77;3.47;;;7.50;99.90;;;;;;5033954;28;20057;-51
2024/01/21 06:06:21;;;;;;;13.32;3.45;;;7.50;99.90;;;;;;5033921;28;20522;-54
2024/01/21 06:08:47;;;;;;;15.23;3.83;;;7.50;99.90;;;;;;5033860;28;20026;-55
2024/01/21 06:11:12;;;;;;;13.65;3.35;;;7.60;99.90;;;;;;5033560;28;20026;-52
2024/01/21 06:13:38;;;;;;;13.00;3.40;;;7.60;99.90;;;;;;5033832;28;20030;-51
2024/01/21 06:16:04;;;;;;;11.77;2.97;;;7.70;99.90;;;;;;5033622;28;20495;-56
2024/01/21 06:18:30;;;;;;;12.25;3.65;;;7.70;99.90;;;;;;5033597;28;20485;-49
2024/01/21 06:20:55;;;;;;;20.40;3.42;;;7.70;99.90;;;;;;5033554;28;20144;-49
2024/01/21 06:23:21;;;;;;;8.60;3.40;;;7.70;99.90;;;;;;5033687;28;20100;-51
2024/01/21 06:25:47;;;;;;;13.27;3.25;;;7.80;99.90;;;;;;5033769;28;20149;-50
2024/01/21 06:28:12;;;;;;;11.55;3.00;;;7.80;99.90;;;;;;5032311;28;20475;-49
2024/01/21 06:30:38;;;;;;;9.35;3.13;;;7.80;99.90;;;;;;5031977;28;20021;-49
2024/01/21 06:33:04;;;;;;;12.65;3.25;;;7.90;99.90;;;;;;5033464;28;20037;-53
2024/01/21 06:35:30;;;;;;;14.27;3.10;;;7.90;99.90;;;;;;5033137;28;20048;-49
2024/01/21 06:37:55;;;;;;;16.65;3.17;;;7.90;99.90;;;;;;5033243;28;20375;-50
2024/01/21 06:40:21;;;;;;;13.95;2.78;;;7.90;99.90;;;;;;5033461;28;20099;-55
2024/01/21 06:42:47;;;;;;;16.88;3.53;;;7.90;99.90;;;;;;5032954;28;20434;-49
2024/01/21 06:45:13;;;;;;;16.42;3.00;;;7.90;99.90;;;;;;5033352;28;20031;-52
2024/01/21 06:47:39;;;;;;;9.35;2.78;;;8.00;99.90;;;;;;5032935;28;20184;-50
2024/01/21 06:50:05;;;;;;;18.10;3.25;;;8.00;99.90;;;;;;5033126;28;20032;-52
2024/01/21 06:52:31;;;;;;;13.98;3.85;;;8.10;99.90;;;;;;5032950;28;20384;-50
2024/01/21 06:54:57;;;;;;;18.00;3.28;;;8.10;99.90;;;;;;5033041;28;20498;-49
2024/01/21 06:57:22;;;;;;;18.63;3.35;;;8.00;99.90;;;;;;5033044;28;20036;-54
2024/01/21 06:59:50;;;;;;;12.57;3.22;;;8.10;99.90;;;;;;5032789;28;20468;-50
2024/01/21 07:02:16;;;;;;;22.73;4.35;;;8.10;99.90;;;;;;5032887;28;20116;-54
2024/01/21 07:04:41;;;;;;;12.05;3.13;;;8.10;99.90;;;;;;5032611;28;20118;-52
2024/01/21 07:07:08;;;;;;;13.25;3.58;;;8.10;99.90;;;;;;5032784;28;20025;-55
2024/01/21 07:09:34;;;;;;;22.85;5.20;;;8.20;99.90;;;;;;5032794;28;20025;-51
2024/01/21 07:12:00;;;;;;;17.88;3.10;;;8.20;99.90;;;;;;5031326;28;20064;-54
2024/01/21 07:14:26;;;;;;;19.15;3.40;;;8.20;99.90;;;;;;5032578;28;20029;-57
2024/01/21 07:16:51;;;;;;;15.20;3.92;;;8.20;99.90;;;;;;5032470;28;20029;-52
2024/01/21 07:19:17;;;;;;;16.05;3.38;;;8.20;99.90;;;;;;5032069;28;20556;-51
2024/01/21 07:21:43;;;;;;;18.25;3.20;;;8.30;99.90;;;;;;5032547;28;20112;-56
2024/01/21 07:24:08;;;;;;;16.13;3.28;;;8.30;99.90;;;;;;5031090;28;20499;-53
2024/01/21 07:26:34;;;;;;;10.00;2.83;;;8.40;99.90;;;;;;5019952;28;20022;-52
2024/01/21 07:28:59;;;;;;;11.93;2.58;;;8.40;99.90;;;;;;5030606;28;20033;-52
2024/01/21 07:31:25;;;;;;;11.40;2.55;;;8.50;99.90;;;;;;5031046;28;20570;-57
2024/01/21 07:33:51;;;;;;;14.50;2.97;;;8.50;99.90;;;;;;5030138;28;20516;-52
2024/01/21 07:36:16;;;;;;;15.02;2.75;;;8.50;99.90;;;;;;5030310;28;20032;-55
2024/01/21 07:38:42;;;;;;;10.55;2.25;;;8.50;99.90;;;;;;5031903;28;20056;-56
2024/01/21 07:41:08;;;;;;;7.32;2.40;;;8.50;99.90;;;;;;5032784;28;20025;-51
2024/01/21 07:43:34;;;;;;;12.20;2.08;;;8.50;99.90;;;;;;5043213;28;20021;-50
2024/01/21 07:45:59;;;;;;;6.40;2.17;;;8.60;99.90;;;;;;5031494;28;20021;-50
2024/01/21 07:48:25;;;;;;;8.38;2.30;;;8.60;99.90;;;;;;5031571;28;20108;-49
2024/01/21 07:50:51;;;;;;;15.90;2.92;;;8.60;99.90;;;;;;5029387;28;20459;-55
2024/01/21 07:53:20;;;;;;;17.65;3.17;;;8.70;99.90;;;;;;5047936;28;20171;-52
2024/01/21 07:55:45;;;;;;;13.85;2.50;;;8.70;99.90;;;;;;5033049;28;20358;-49
2024/01/21 07:58:14;;;;;;;12.50;3.28;;;8.70;99.90;;;;;;5031584;28;20032;-53
2024/01/21 08:00:42;;;;;;;8.55;2.72;;;8.80;99.90;;;;;;5031395;28;20038;-56
2024/01/21 08:03:07;;;;;;;13.98;3.28;;;8.80;99.90;;;;;;5031543;28;20427;-52
2024/01/21 08:05:33;;;;;;;15.18;2.72;;;8.80;99.90;;;;;;5031470;28;20028;-52
2024/01/21 08:07:59;;;;;;;8.93;2.13;;;8.90;99.90;;;;;;5031222;28;20022;-49
2024/01/21 08:10:24;;;;;;;16.13;2.80;;;8.90;99.90;;;;;;5043712;28;20026;-52
2024/01/21 08:12:50;;;;;;;15.18;2.47;;;8.90;99.90;;;;;;5030628;28;20095;-54
2024/01/21 08:15:16;;;;;;;8.30;2.80;;;8.90;99.90;;;;;;5019938;28;20029;-49
2024/01/21 08:17:41;;;;;;;15.35;3.00;;;8.90;99.90;;;;;;5030890;28;20233;-54
2024/01/21 08:20:08;;;;;;;13.00;2.63;;;8.90;99.90;;;;;;5030674;28;20029;-50
2024/01/21 08:22:33;;;;;;;19.95;3.50;;;9.00;99.90;;;;;;5022806;28;20049;-52
2024/01/21 08:24:59;;;;;;;16.95;3.55;;;9.00;99.90;;;;;;5030082;28;20083;-53
2024/01/21 08:27:25;;;;;;;12.70;2.97;;;8.90;99.90;;;;;;5030049;28;20014;-52
2024/01/21 08:29:50;;;;;;;14.52;2.88;;;9.00;99.90;;;;;;5028571;28;20021;-54
2024/01/21 08:32:16;;;;;;;15.73;3.08;;;9.00;99.90;;;;;;5028553;28;20029;-52
2024/01/21 08:34:42;;;;;;;16.55;2.58;;;9.00;99.90;;;;;;5028604;28;20099;-49
2024/01/21 08:37:07;;;;;;;17.92;3.10;;;9.00;99.90;;;;;;5028486;28;20025;-56
2024/01/21 08:39:33;;;;;;;13.15;2.17;;;9.00;99.90;;;;;;5028589;28;20044;-52
2024/01/21 08:41:59;;;;;;;20.63;3.20;;;9.00;99.90;;;;;;5022580;28;20030;-54
2024/01/21 08:44:24;;;;;;;9.23;2.60;;;9.10;99.90;;;;;;5029518;28;20021;-53
2024/01/21 08:46:50;;;;;;;14.93;3.20;;;9.10;99.90;;;;;;5030243;28;20028;-54
2024/01/21 08:49:16;;;;;;;10.70;2.83;;;9.10;99.90;;;;;;5030488;28;20100;-53
2024/01/21 08:51:41;;;;;;;12.95;2.72;;;9.10;99.90;;;;;;5023624;28;20223;-49
2024/01/21 08:54:07;;;;;;;21.88;2.88;;;9.10;99.90;;;;;;5012061;28;20029;-53
2024/01/21 08:56:35;;;;;;;16.88;2.92;;;9.10;99.90;;;;;;5018892;28;20029;-49
2024/01/21 08:59:01;;;;;;;13.85;3.90;;;9.20;99.90;;;;;;5030073;28;20456;-49
2024/01/21 09:01:26;;;;;;;17.48;4.20;;;9.10;99.90;;;;;;5029818;28;20021;-52
2024/01/21 09:03:52;;;;;;;17.67;3.20;;;9.10;99.90;;;;;;5029924;28;20021;-52
2024/01/21 09:06:18;;;;;;;16.80;2.95;;;9.10;99.90;;;;;;5030072;28;20033;-54
2024/01/21 09:08:44;;;;;;;19.80;3.42;;;9.10;99.90;;;;;;5029864;28;20070;-53
2024/01/21 09:11:10;;;;;;;20.70;2.85;;;9.10;99.90;;;;;;5029732;28;20033;-53
2024/01/21 09:13:36;;;;;;;9.45;2.25;;;9.20;99.90;;;;;;5029908;28;20034;-48
2024/01/21 09:16:01;;;;;;;9.50;2.55;;;9.10;99.90;;;;;;5029389;28;20036;-51
2024/01/21 09:18:27;;;;;;;13.25;2.90;;;9.20;99.90;;;;;;5029690;28;20377;-58
2024/01/21 09:20:53;;;;;;;10.73;2.65;;;9.20;99.90;;;;;;5029911;28;20061;-54
2024/01/21 09:23:18;;;;;;;18.20;3.10;;;9.20;99.90;;;;;;5029967;28;20104;-50
2024/01/21 09:25:44;;;;;;;14.15;2.70;;;9.20;99.90;;;;;;5029684;28;20032;-53
2024/01/21 09:28:11;;;;;;;13.25;2.25;;;9.10;99.90;;;;;;5029965;28;20110;-48
2024/01/21 09:30:36;;;;;;;16.40;2.75;;;9.20;99.90;;;;;;5028416;28;20044;-51
2024/01/21 09:33:02;;;;;;;11.32;3.15;;;9.20;99.90;;;;;;5027586;28;20034;-49
2024/01/21 09:35:28;;;;;;;24.83;3.33;;;9.20;99.90;;;;;;5027666;28;20025;-48
2024/01/21 09:37:53;;;;;;;12.90;3.45;;;9.30;99.90;;;;;;5027752;28;20513;-48
2024/01/21 09:40:19;;;;;;;13.40;2.72;;;9.30;99.90;;;;;;5027727;28;20057;-48
2024/01/21 09:42:45;;;;;;;19.92;2.88;;;9.30;99.90;;;;;;5027562;28;20026;-48
2024/01/21 09:45:11;;;;;;;19.83;2.60;;;9.40;99.90;;;;;;5028257;28;20119;-48
2024/01/21 09:47:37;;;;;;;16.52;2.65;;;9.40;99.90;;;;;;5029540;28;20022;-58
2024/01/21 09:50:04;;;;;;;11.50;2.47;;;9.40;99.90;;;;;;5029791;28;20022;-51
2024/01/21 09:52:30;;;;;;;16.23;3.22;;;9.40;99.90;;;;;;5028298;28;20097;-51
2024/01/21 09:54:55;;;;;;;20.98;3.67;;;9.50;99.90;;;;;;5029620;28;20065;-55
2024/01/21 09:57:21;;;;;;;23.00;3.67;;;9.60;99.90;;;;;;5028421;28;20076;-50
2024/01/21 09:59:47;;;;;;;16.15;2.83;;;9.70;99.90;;;;;;5029224;28;20165;-55
2024/01/21 10:02:18;;;;;;;11.85;2.30;;;9.80;99.90;;;;;;5029488;28;20100;-49
2024/01/21 10:04:45;;;;;;;15.57;3.17;;;9.80;99.90;;;;;;5029649;28;20021;-55
2024/01/21 10:07:13;;;;;;;12.38;2.30;;;9.80;99.90;;;;;;5029574;28;20445;-56
2024/01/21 10:09:40;;;;;;;17.00;2.63;;;9.90;99.90;;;;;;5029631;28;20040;-58
2024/01/21 10:12:07;;;;;;;10.85;2.28;;;9.90;99.90;;;;;;5029184;28;20088;-54
2024/01/21 10:14:32;;;;;;;22.15;3.25;;;9.90;99.90;;;;;;5029468;28;20037;-53
2024/01/21 10:16:59;;;;;;;17.05;3.03;;;9.90;99.90;;;;;;5029257;28;20384;-54
2024/01/21 10:19:31;;;;;;;17.95;3.85;;;9.90;99.90;;;;;;5029361;28;20038;-51
2024/01/21 10:22:06;;;;;;;12.50;2.22;;;9.90;99.90;;;;;;5029366;28;20022;-54
2024/01/21 10:24:31;;;;;;;15.32;2.17;;;9.90;99.90;;;;;;5029463;28;20026;-53
2024/01/21 10:26:57;;;;;;;16.15;3.60;;;9.90;99.90;;;;;;5029319;28;20025;-50
2024/01/21 10:29:23;;;;;;;14.75;2.28;;;10.00;99.90;;;;;;5029457;28;20083;-58
2024/01/21 10:31:49;;;;;;;13.35;2.38;;;10.00;99.90;;;;;;5029569;28;20029;-60
2024/01/21 10:34:15;;;;;;;18.38;2.10;;;10.00;99.90;;;;;;5029502;28;20036;-57
2024/01/21 10:36:44;;;;;;;12.93;2.35;;;10.00;99.90;;;;;;5029955;28;20022;-53
2024/01/21 10:39:16;;;;;;;;;;;10.00;99.90;;;;;;5029564;28;20095;-51
2024/01/21 10:41:43;;;;;;;14.55;3.53;;;10.10;99.90;;;;;;5029264;28;20398;-51
2024/01/21 10:44:09;;;;;;;9.15;2.08;;;10.10;99.90;;;;;;5029300;28;20088;-55
2024/01/21 10:46:37;;;;;;;26.20;3.40;;;10.20;99.90;;;;;;5032601;28;20033;-54
2024/01/21 10:49:03;;;;;;;14.88;2.78;;;10.40;99.90;;;;;;5032735;28;20087;-55
2024/01/21 10:51:29;;;;;;;24.38;2.75;;;10.40;99.90;;;;;;5032790;28;20025;-51
2024/01/21 10:53:59;;;;;;;9.50;2.42;;;10.40;99.90;;;;;;5032975;28;20032;-54
2024/01/21 10:56:25;;;;;;;21.98;3.25;;;10.50;99.90;;;;;;5032447;28;20109;-48
2024/01/21 10:58:52;;;;;;;16.08;2.50;;;10.50;99.90;;;;;;5033070;28;20515;-53
2024/01/21 11:01:21;;;;;;;17.17;2.65;;;10.40;99.90;;;;;;5032637;28;20028;-55
2024/01/21 11:03:48;;;;;;;13.55;2.60;;;10.50;99.90;;;;;;5032893;28;20045;-55
2024/01/21 11:06:15;;;;;;;20.92;3.25;;;10.50;99.90;;;;;;5032622;28;20065;-53
2024/01/21 11:08:45;;;;;;;29.30;3.38;;;10.60;99.90;;;;;;5032442;28;20124;-54
2024/01/21 11:11:14;;;;;;;24.10;3.17;;;10.60;99.90;;;;;;5032508;28;20049;-51
2024/01/21 11:13:52;;;;;;;10.80;2.22;;;10.60;99.90;;;;;;5032657;28;20063;-57
2024/01/21 11:16:35;;;;;;;18.92;2.72;;;10.70;99.90;;;;;;5032618;28;20555;-50
2024/01/21 11:19:05;;;;;;;16.27;2.35;;;10.70;99.90;;;;;;5032277;28;20037;-53
2024/01/21 11:21:31;;;;;;;;;;;10.60;99.90;;;;;;5033019;28;20033;-51
2024/01/21 11:24:03;;;;;;;13.65;2.35;;;10.60;99.90;;;;;;5032335;28;19909;-52
2024/01/21 11:26:35;;;;;;;14.05;3.22;;;10.50;99.90;;;;;;5031025;28;20512;-51
2024/01/21 11:29:02;;;;;;;17.35;3.17;;;10.50;99.90;;;;;;5032429;28;20101;-54
2024/01/21 11:31:32;;;;;;;13.27;2.55;;;10.50;99.90;;;;;;5032392;28;20164;-48
2024/01/21 11:34:06;;;;;;;26.23;3.08;;;10.50;99.90;;;;;;5032456;28;20098;-49
2024/01/21 11:36:37;;;;;;;14.07;2.75;;;10.40;99.90;;;;;;5032413;28;20054;-49
2024/01/21 11:39:05;;;;;;;19.17;3.42;;;10.40;99.90;;;;;;5031883;28;20431;-55
2024/01/21 11:41:42;;;;;;;19.40;3.28;;;10.40;99.90;;;;;;5032071;28;20029;-52
2024/01/21 11:44:14;;;;;;;20.98;2.67;;;10.50;99.90;;;;;;5031995;28;20096;-55
2024/01/21 11:46:44;;;;;;;17.77;2.55;;;10.40;99.90;;;;;;5032111;28;20022;-52
2024/01/21 11:49:10;;;;;;;;;;;10.50;99.90;;;;;;5032369;28;20025;-52
2024/01/21 11:51:37;;;;;;;17.17;3.08;;;10.50;99.90;;;;;;5032048;28;20433;-54
2024/01/21 11:54:04;;;;;;;20.15;3.08;;;10.50;99.90;;;;;;5031785;28;20455;-51
2024/01/21 11:56:30;;;;;;;19.73;3.50;;;10.50;99.90;;;;;;5031079;28;20026;-52
2024/01/21 11:58:57;;;;;;;17.02;3.40;;;10.60;99.90;;;;;;5031543;28;20037;-53
2024/01/21 12:01:24;;;;;;;16.60;2.72;;;10.60;99.90;;;;;;5031672;28;20076;-49
2024/01/21 12:03:50;;;;;;;24.38;2.83;;;10.60;99.90;;;;;;5031641;28;20060;-54
2024/01/21 12:06:18;;;;;;;14.20;2.75;;;10.50;99.90;;;;;;5031466;28;20042;-52
2024/01/21 12:08:45;;;;;;;26.25;3.75;;;10.50;99.90;;;;;;5031284;28;20384;-50
2024/01/21 12:11:12;;;;;;;14.73;2.95;;;10.50;99.90;;;;;;5031133;28;20410;-53
2024/01/21 12:13:39;;;;;;;22.38;3.35;;;10.50;99.90;;;;;;5031328;28;20037;-51
2024/01/21 12:16:07;;;;;;;19.52;4.25;;;10.40;99.90;;;;;;5031141;28;20068;-53
2024/01/21 12:18:40;;;;;;;19.40;3.60;;;10.40;99.90;;;;;;5031218;28;20041;-54
2024/01/21 12:21:06;;;;;;;19.17;3.10;;;10.40;99.90;;;;;;5031123;28;20388;-53
2024/01/21 12:23:32;;;;;;;25.85;3.22;;;10.50;99.90;;;;;;5031071;28;20025;-52
2024/01/21 12:25:59;;;;;;;17.67;2.70;;;10.50;99.90;;;;;;5030680;28;20079;-49
2024/01/21 12:28:24;;;;;;;18.58;3.13;;;10.50;99.90;;;;;;5029884;28;20041;-53
2024/01/21 12:30:50;;;;;;;18.50;3.05;;;10.50;99.90;;;;;;5030403;28;20029;-52
2024/01/21 12:33:16;;;;;;;15.70;2.47;;;10.50;99.90;;;;;;5030753;28;20032;-53
2024/01/21 12:35:43;;;;;;;24.27;3.30;;;10.40;99.90;;;;;;5030715;28;20014;-53
2024/01/21 12:38:09;;;;;;;17.80;3.00;;;10.40;99.90;;;;;;5030520;28;20441;-53
2024/01/21 12:40:34;;;;;;;12.63;2.92;;;10.40;99.90;;;;;;5030604;28;20057;-52
2024/01/21 12:43:00;;;;;;;19.67;3.80;;;10.30;99.90;;;;;;5031255;28;20029;-52